createdAt,value
2022-12-23T00:02:17.835Z,10.30
2022-12-23T00:04:46.974Z,8.98
2022-12-23T00:07:42.843Z,9.55
2022-12-23T00:10:13.868Z,8.82
2022-12-23T00:13:00.440Z,9.63
2022-12-23T00:15:27.720Z,9.55
2022-12-23T00:17:55.925Z,9.25
2022-12-23T00:20:24.004Z,8.77
2022-12-23T00:23:11.907Z,8.73
2022-12-23T00:25:42.249Z,8.73
2022-12-23T00:28:23.233Z,9.52
2022-12-23T00:31:13.437Z,9.88
2022-12-23T00:33:46.914Z,9.85
2022-12-23T00:36:28.000Z,8.63
2022-12-23T00:39:15.869Z,9.25
2022-12-23T00:42:02.420Z,8.95
2022-12-23T00:44:29.991Z,9.60
2022-12-23T00:46:57.747Z,9.65
2022-12-23T00:49:44.181Z,9.27
2022-12-23T00:52:14.181Z,8.90
2022-12-23T00:54:41.940Z,9.15
2022-12-23T00:57:13.974Z,10.27
2022-12-23T00:59:41.726Z,9.25
2022-12-23T01:05:36.850Z,8.90
2022-12-23T01:08:12.060Z,8.70
2022-12-23T01:10:41.201Z,8.80
2022-12-23T01:13:14.712Z,8.63
2022-12-23T01:15:41.713Z,8.73
2022-12-23T01:18:09.736Z,8.68
2022-12-23T01:20:38.938Z,9.30
2022-12-23T01:23:06.508Z,9.85
2022-12-23T01:25:33.782Z,9.32
2022-12-23T01:31:17.752Z,9.85
2022-12-23T01:33:46.021Z,9.02
2022-12-23T01:36:13.793Z,9.02
2022-12-23T01:38:41.765Z,9.35
2022-12-23T01:41:41.862Z,9.35
2022-12-23T01:44:52.403Z,8.55
2022-12-23T01:47:25.910Z,9.45
2022-12-23T01:50:20.920Z,9.43
2022-12-23T01:52:54.818Z,8.43
2022-12-23T01:55:27.022Z,9.55
2022-12-23T01:57:56.600Z,8.52
2022-12-23T02:00:42.462Z,8.50
2022-12-23T02:03:28.423Z,8.73
2022-12-23T02:06:16.813Z,9.10
2022-12-23T02:09:02.199Z,10.18
2022-12-23T02:11:54.756Z,9.70
2022-12-23T02:15:05.317Z,9.45
2022-12-23T02:17:39.688Z,11.35
2022-12-23T02:20:48.692Z,10.00
2022-12-23T02:23:40.652Z,10.50
2022-12-23T02:29:22.173Z,9.98
2022-12-23T02:32:18.361Z,9.77
2022-12-23T02:35:02.204Z,10.05
2022-12-23T02:37:49.279Z,9.25
2022-12-23T02:41:08.238Z,10.52
2022-12-23T02:43:47.438Z,9.82
2022-12-23T02:46:38.489Z,9.35
2022-12-23T02:49:32.388Z,8.85
2022-12-23T02:52:05.039Z,11.57
2022-12-23T02:57:37.137Z,9.15
2022-12-23T03:00:07.083Z,11.20
2022-12-23T03:02:39.904Z,10.38
2022-12-23T03:05:25.571Z,10.07
2022-12-23T03:07:57.188Z,9.82
2022-12-23T03:10:48.053Z,9.18
2022-12-23T03:17:00.651Z,8.98
2022-12-23T03:19:48.829Z,10.38
2022-12-23T03:22:30.667Z,11.07
2022-12-23T03:25:03.886Z,11.15
2022-12-23T03:27:54.796Z,10.10
2022-12-23T03:30:23.580Z,10.95
2022-12-23T03:33:14.651Z,11.45
2022-12-23T03:35:57.256Z,10.93
2022-12-23T03:38:26.713Z,10.05
2022-12-23T03:41:00.832Z,10.07
2022-12-23T03:43:33.300Z,10.35
2022-12-23T03:46:08.054Z,10.20
2022-12-23T03:48:40.587Z,11.15
2022-12-23T03:51:27.441Z,10.85
2022-12-23T03:54:03.401Z,10.40
2022-12-23T03:56:36.509Z,10.52
2022-12-23T03:59:17.148Z,9.02
2022-12-23T04:05:19.340Z,8.55
2022-12-23T04:10:52.531Z,11.68
2022-12-23T04:13:27.405Z,9.43
2022-12-23T04:15:58.440Z,9.98
2022-12-23T04:18:26.029Z,10.77
2022-12-23T04:20:53.837Z,9.70
2022-12-23T04:23:26.807Z,10.35
2022-12-23T04:25:58.767Z,10.63
2022-12-23T04:28:25.735Z,9.95
2022-12-23T04:30:53.877Z,9.85
2022-12-23T04:34:12.487Z,9.55
2022-12-23T04:36:39.836Z,9.65
2022-12-23T04:39:07.809Z,10.57
2022-12-23T04:41:35.744Z,10.75
2022-12-23T04:44:03.769Z,11.15
2022-12-23T04:46:31.785Z,10.48
2022-12-23T04:48:59.753Z,11.82
2022-12-23T04:54:19.769Z,12.25
2022-12-23T04:56:52.823Z,11.85
2022-12-23T04:59:24.851Z,11.63
2022-12-23T05:01:56.996Z,11.65
2022-12-23T05:04:29.957Z,10.40
2022-12-23T05:07:02.778Z,10.30
2022-12-23T05:09:29.730Z,11.45
2022-12-23T05:11:57.752Z,10.73
2022-12-23T05:17:43.723Z,10.25
2022-12-23T05:20:11.773Z,10.90
2022-12-23T05:22:48.755Z,11.15
2022-12-23T05:25:15.806Z,11.13
2022-12-23T05:27:43.765Z,11.07
2022-12-23T05:30:12.303Z,10.63
2022-12-23T05:32:39.763Z,11.32
2022-12-23T05:37:59.936Z,14.48
2022-12-23T05:40:29.287Z,14.90
2022-12-23T05:43:04.948Z,13.23
2022-12-23T05:45:35.531Z,14.40
2022-12-23T05:48:09.090Z,14.48
2022-12-23T05:51:01.746Z,14.95
2022-12-23T05:53:29.826Z,15.43
2022-12-23T05:55:57.734Z,15.18
2022-12-23T05:58:30.862Z,15.20
2022-12-23T06:00:57.789Z,13.93
2022-12-23T06:03:31.008Z,15.25
2022-12-23T06:06:04.861Z,13.65
2022-12-23T06:08:31.779Z,15.43
2022-12-23T06:11:00.351Z,15.13
2022-12-23T06:13:33.748Z,13.48
2022-12-23T06:16:01.812Z,13.57
2022-12-23T06:18:29.759Z,13.93
2022-12-23T06:20:57.870Z,12.65
2022-12-23T06:23:25.784Z,13.13
2022-12-23T06:28:51.823Z,12.88
2022-12-23T06:31:24.960Z,12.23
2022-12-23T06:33:51.700Z,13.30
2022-12-23T06:36:50.196Z,13.35
2022-12-23T06:39:17.748Z,13.73
2022-12-23T06:41:50.859Z,12.48
2022-12-23T06:44:18.142Z,13.05
2022-12-23T06:46:50.811Z,13.95
2022-12-23T06:49:17.736Z,12.90
2022-12-23T06:54:37.885Z,12.82
2022-12-23T06:57:05.947Z,12.63
2022-12-23T06:59:33.766Z,12.82
2022-12-23T07:04:57.760Z,11.38
2022-12-23T07:07:30.779Z,12.07
2022-12-23T07:09:57.728Z,12.10
2022-12-23T07:12:25.763Z,12.80
2022-12-23T07:14:53.886Z,12.57
2022-12-23T07:17:52.685Z,12.93
2022-12-23T07:20:19.983Z,12.23
2022-12-23T07:22:47.957Z,13.02
2022-12-23T07:25:16.343Z,13.77
2022-12-23T07:27:43.729Z,13.15
2022-12-23T07:30:11.888Z,12.93
2022-12-23T07:32:39.805Z,12.50
2022-12-23T07:35:08.061Z,11.40
2022-12-23T07:37:59.837Z,11.35
2022-12-23T07:40:28.068Z,11.63
2022-12-23T07:43:00.628Z,11.93
2022-12-23T07:45:29.310Z,12.73
2022-12-23T07:50:51.760Z,11.75
2022-12-23T07:53:43.859Z,10.20
2022-12-23T07:56:16.781Z,11.05
2022-12-23T07:58:51.414Z,9.88
2022-12-23T08:01:44.201Z,11.45
2022-12-23T08:04:38.388Z,11.30
2022-12-23T08:07:15.853Z,10.80
2022-12-23T08:09:43.723Z,11.70
2022-12-23T08:12:12.071Z,10.93
2022-12-23T08:14:39.743Z,10.88
2022-12-23T08:17:08.118Z,11.38
2022-12-23T08:20:01.757Z,9.40
2022-12-23T08:22:31.872Z,10.35
2022-12-23T08:24:59.886Z,9.57
2022-12-23T08:27:28.029Z,9.65
2022-12-23T08:29:55.945Z,11.75
2022-12-23T08:35:17.763Z,10.18
2022-12-23T08:40:40.953Z,10.60
2022-12-23T08:43:09.253Z,10.50
2022-12-23T08:45:38.705Z,10.23
2022-12-23T08:48:11.935Z,10.77
2022-12-23T08:50:41.223Z,11.18
2022-12-23T08:53:10.705Z,10.82
2022-12-23T08:55:39.823Z,9.65
2022-12-23T08:58:09.071Z,10.57
2022-12-23T09:04:03.621Z,9.07
2022-12-23T09:09:52.051Z,9.60
2022-12-23T09:12:20.459Z,11.00
2022-12-23T09:14:49.584Z,10.35
2022-12-23T09:17:17.877Z,9.50
2022-12-23T09:20:15.611Z,10.00
2022-12-23T09:22:43.730Z,11.63
2022-12-23T09:25:36.866Z,9.32
2022-12-23T09:28:09.429Z,11.25
2022-12-23T09:30:37.766Z,11.00
2022-12-23T09:33:05.719Z,9.55
2022-12-23T09:35:33.799Z,9.40
2022-12-23T09:38:01.736Z,10.25
2022-12-23T09:40:34.388Z,10.90
2022-12-23T09:43:31.283Z,10.85
2022-12-23T09:49:27.475Z,9.63
2022-12-23T09:52:02.690Z,10.30
2022-12-23T09:58:06.189Z,10.95
2022-12-23T10:00:42.722Z,9.35
2022-12-23T10:03:28.410Z,11.77
2022-12-23T10:06:03.052Z,11.45
2022-12-23T10:08:36.579Z,9.90
2022-12-23T10:11:22.066Z,9.68
2022-12-23T10:13:58.057Z,10.73
2022-12-23T10:16:50.539Z,12.00
2022-12-23T10:22:44.302Z,11.00
2022-12-23T10:25:44.877Z,11.38
2022-12-23T10:28:20.335Z,11.95
2022-12-23T10:31:41.216Z,12.10
2022-12-23T10:34:38.749Z,11.18
2022-12-23T10:37:45.039Z,10.60
2022-12-23T10:40:20.758Z,10.35
2022-12-23T10:43:21.310Z,12.35
2022-12-23T10:46:12.583Z,12.70
2022-12-23T10:51:54.753Z,11.02
2022-12-23T10:54:29.185Z,10.60
2022-12-23T10:56:58.149Z,11.98
2022-12-23T10:59:31.696Z,11.18
2022-12-23T11:02:12.310Z,10.18
2022-12-23T11:04:48.585Z,11.02
2022-12-23T11:10:20.709Z,11.40
2022-12-23T11:13:28.410Z,11.13
2022-12-23T11:16:28.144Z,10.88
2022-12-23T11:19:00.711Z,10.63
2022-12-23T11:21:53.280Z,10.77
2022-12-23T11:24:27.398Z,10.13
2022-12-23T11:27:02.753Z,11.13
2022-12-23T11:29:35.437Z,11.60
2022-12-23T11:32:16.329Z,10.52
2022-12-23T11:34:46.636Z,11.30
2022-12-23T11:37:35.020Z,11.25
2022-12-23T11:40:03.615Z,11.30
2022-12-23T11:42:36.090Z,11.90
2022-12-23T11:45:06.785Z,11.05
2022-12-23T11:47:41.723Z,11.65
2022-12-23T11:50:31.782Z,11.50
2022-12-23T11:53:27.647Z,10.98
2022-12-23T11:56:09.095Z,11.85
2022-12-23T11:58:53.370Z,12.43
2022-12-23T12:01:25.150Z,11.05
2022-12-23T12:04:01.085Z,11.85
2022-12-23T12:06:31.063Z,10.38
2022-12-23T12:09:02.035Z,10.48
2022-12-23T12:14:43.736Z,11.40
2022-12-23T12:17:33.187Z,10.35
2022-12-23T12:20:03.075Z,10.10
2022-12-23T12:22:53.132Z,11.48
2022-12-23T12:25:38.055Z,11.65
2022-12-23T12:28:13.604Z,11.43
2022-12-23T12:34:40.690Z,9.88
2022-12-23T12:37:36.873Z,11.80
2022-12-23T12:40:32.089Z,11.38
2022-12-23T12:43:20.884Z,10.48
2022-12-23T12:49:09.245Z,12.88
2022-12-23T12:51:57.191Z,9.93
2022-12-23T12:58:14.895Z,9.98
2022-12-23T13:01:09.863Z,8.05
2022-12-23T13:03:59.633Z,10.32
2022-12-23T13:06:42.051Z,9.75
2022-12-23T13:09:26.961Z,8.90
2022-12-23T13:12:06.838Z,8.95
2022-12-23T13:14:44.485Z,8.02
2022-12-23T13:18:10.377Z,9.15
2022-12-23T13:20:48.582Z,9.18
2022-12-23T13:23:42.818Z,9.23
2022-12-23T13:26:38.849Z,9.48
2022-12-23T13:29:27.012Z,8.13
2022-12-23T13:32:17.800Z,9.15
2022-12-23T13:35:05.834Z,8.23
2022-12-23T13:37:54.932Z,8.65
2022-12-23T13:40:40.340Z,8.70
2022-12-23T13:43:18.564Z,8.45
2022-12-23T13:45:47.326Z,8.55
2022-12-23T13:48:41.916Z,8.05
2022-12-23T13:51:15.147Z,8.25
2022-12-23T13:53:52.764Z,7.65
2022-12-23T13:56:38.659Z,7.70
2022-12-23T13:59:14.492Z,7.95
2022-12-23T14:01:41.703Z,7.78
2022-12-23T14:04:42.075Z,8.23
2022-12-23T14:07:21.838Z,9.70
2022-12-23T14:10:13.735Z,10.63
2022-12-23T14:12:55.898Z,11.73
2022-12-23T14:18:28.189Z,12.02
2022-12-23T14:21:21.680Z,12.38
2022-12-23T14:24:26.662Z,12.38
2022-12-23T14:27:25.391Z,12.48
2022-12-23T14:30:07.545Z,14.65
2022-12-23T14:32:59.553Z,14.63
2022-12-23T14:35:42.010Z,14.18
2022-12-23T14:41:50.592Z,15.02
2022-12-23T14:44:49.123Z,13.88
2022-12-23T14:47:31.501Z,13.52
2022-12-23T14:50:38.564Z,13.50
2022-12-23T14:53:23.386Z,13.05
2022-12-23T14:58:51.900Z,12.20
2022-12-23T15:01:31.458Z,13.25
2022-12-23T15:04:12.648Z,13.45
2022-12-23T15:06:43.049Z,12.13
2022-12-23T15:09:36.230Z,13.25
2022-12-23T15:12:14.724Z,11.48
2022-12-23T15:14:49.429Z,13.43
2022-12-23T15:17:28.653Z,14.40
2022-12-23T15:20:10.844Z,13.73
2022-12-23T15:25:46.078Z,12.30
2022-12-23T15:28:36.930Z,13.50
2022-12-23T15:31:05.782Z,13.05
2022-12-23T15:36:32.078Z,12.88
2022-12-23T15:39:18.238Z,12.77
2022-12-23T15:41:47.211Z,13.50
2022-12-23T15:44:23.190Z,11.27
2022-12-23T15:46:52.671Z,12.30
2022-12-23T15:49:25.728Z,12.13
2022-12-23T15:52:12.298Z,12.38
2022-12-23T15:54:54.553Z,11.63
2022-12-23T15:57:25.848Z,11.00
2022-12-23T15:59:59.121Z,11.38
2022-12-23T16:03:00.553Z,13.23
2022-12-23T16:05:41.240Z,11.07
2022-12-23T16:08:34.927Z,14.05
2022-12-23T16:11:06.899Z,12.07
2022-12-23T16:13:46.683Z,12.68
2022-12-23T16:16:38.231Z,11.80
2022-12-23T16:19:07.143Z,11.95
2022-12-23T16:21:40.653Z,11.52
2022-12-23T16:24:09.077Z,10.45
2022-12-23T16:26:42.082Z,11.07
2022-12-23T16:29:11.417Z,10.88
2022-12-23T16:34:55.985Z,13.40
2022-12-23T16:37:23.779Z,13.38
2022-12-23T16:40:17.120Z,14.48
2022-12-23T16:42:43.718Z,14.70
2022-12-23T16:48:20.365Z,15.82
2022-12-23T16:50:49.177Z,13.63
2022-12-23T16:56:17.854Z,12.90
2022-12-23T16:58:46.238Z,14.38
2022-12-23T17:01:26.182Z,13.57
2022-12-23T17:03:54.059Z,12.43
2022-12-23T17:06:22.632Z,12.13
2022-12-23T17:08:50.943Z,12.35
2022-12-23T17:11:37.969Z,13.63
2022-12-23T17:14:15.217Z,12.60
2022-12-23T17:16:44.953Z,14.90
2022-12-23T17:19:12.391Z,13.18
2022-12-23T17:21:41.958Z,14.50
2022-12-23T17:24:25.507Z,15.32
2022-12-23T17:26:54.813Z,15.80
2022-12-23T17:29:56.526Z,13.82
2022-12-23T17:32:29.840Z,13.20
2022-12-23T17:35:25.391Z,13.88
2022-12-23T17:37:55.686Z,10.43
2022-12-23T17:45:26.215Z,10.88
2022-12-23T17:47:53.816Z,12.73
2022-12-23T17:50:22.637Z,12.90
2022-12-23T17:55:44.080Z,12.00
2022-12-23T17:58:12.005Z,14.00
2022-12-23T18:00:39.907Z,12.88
2022-12-23T18:03:22.661Z,14.07
2022-12-23T18:05:54.309Z,13.35
2022-12-23T18:08:27.728Z,12.98
2022-12-23T18:10:57.287Z,13.68
2022-12-23T18:13:27.733Z,13.70
2022-12-23T18:16:23.803Z,11.98
2022-12-23T18:22:16.476Z,11.75
2022-12-23T18:24:53.942Z,10.35
2022-12-23T18:30:18.361Z,11.27
2022-12-23T18:32:45.974Z,14.15
2022-12-23T18:35:28.771Z,11.82
2022-12-23T18:38:02.302Z,11.77
2022-12-23T18:40:32.944Z,13.82
2022-12-23T18:43:02.236Z,12.82
2022-12-23T18:45:38.976Z,13.73
2022-12-23T18:48:07.934Z,12.82
2022-12-23T18:50:38.008Z,13.75
2022-12-23T18:53:07.287Z,13.27
2022-12-23T18:58:33.817Z,12.07
2022-12-23T19:01:01.785Z,14.13
2022-12-23T19:03:53.833Z,16.05
2022-12-23T19:06:21.742Z,13.75
2022-12-23T19:09:22.437Z,14.23
2022-12-23T19:11:58.371Z,13.57
2022-12-23T19:14:25.807Z,13.75
2022-12-23T19:16:54.040Z,14.90
2022-12-23T19:19:27.032Z,14.70
2022-12-23T19:21:53.710Z,15.07
2022-12-23T19:24:21.743Z,13.30
2022-12-23T19:27:15.783Z,14.60
2022-12-23T19:32:35.770Z,14.45
2022-12-23T19:35:04.057Z,14.73
2022-12-23T19:37:55.789Z,16.65
2022-12-23T19:40:23.820Z,19.30
2022-12-23T19:42:51.751Z,16.98
2022-12-23T19:45:43.761Z,15.02
2022-12-23T19:48:11.705Z,14.25
2022-12-23T19:50:39.772Z,15.15
2022-12-23T19:53:08.054Z,16.23
2022-12-23T19:55:35.734Z,14.77
2022-12-23T19:58:03.806Z,14.38
2022-12-23T20:00:31.730Z,13.13
2022-12-23T20:03:03.860Z,12.82
2022-12-23T20:08:23.713Z,11.73
2022-12-23T20:11:07.703Z,13.10
2022-12-23T20:13:36.402Z,12.20
2022-12-23T20:16:10.706Z,12.70
2022-12-23T20:18:38.194Z,13.30
2022-12-23T20:21:06.915Z,14.18
2022-12-23T20:23:39.819Z,13.25
2022-12-23T20:26:07.866Z,12.90
2022-12-23T20:28:35.763Z,13.52
2022-12-23T20:31:09.749Z,11.93
2022-12-23T20:33:39.560Z,10.93
2022-12-23T20:39:00.465Z,12.45
2022-12-23T20:41:29.114Z,12.45
2022-12-23T20:44:32.407Z,10.32
2022-12-23T20:46:48.818Z,11.55
2022-12-23T20:49:15.702Z,10.40
2022-12-23T20:51:43.707Z,11.25
2022-12-23T20:54:11.801Z,12.13
2022-12-23T20:57:04.756Z,10.45
2022-12-23T20:59:31.817Z,9.55
2022-12-23T21:02:00.776Z,11.18
2022-12-23T21:04:27.805Z,10.80
2022-12-23T21:07:21.126Z,11.48
2022-12-23T21:09:47.767Z,11.07
2022-12-23T21:12:19.750Z,12.07
2022-12-23T21:14:51.702Z,10.63
2022-12-23T21:17:26.105Z,12.30
2022-12-23T21:22:51.306Z,12.35
2022-12-23T21:25:19.717Z,11.50
2022-12-23T21:27:47.764Z,11.95
2022-12-23T21:30:15.944Z,12.30
2022-12-23T21:32:43.751Z,10.52
2022-12-23T21:35:11.790Z,11.38
2022-12-23T21:37:39.933Z,10.77
2022-12-23T21:40:12.385Z,9.25
2022-12-23T21:42:39.734Z,10.93
2022-12-23T21:45:11.191Z,10.35
2022-12-23T21:47:39.745Z,9.88
2022-12-23T21:50:33.720Z,9.88
2022-12-23T21:55:58.732Z,9.02
2022-12-23T21:58:27.772Z,9.50
2022-12-23T22:00:55.739Z,9.30
2022-12-23T22:03:24.184Z,8.38
2022-12-23T22:05:51.705Z,8.23
2022-12-23T22:08:19.778Z,7.72
2022-12-23T22:10:49.144Z,8.05
2022-12-23T22:13:17.803Z,8.15
2022-12-23T22:15:49.817Z,8.25
2022-12-23T22:18:21.845Z,7.88
2022-12-23T22:20:54.802Z,7.75
2022-12-23T22:23:21.768Z,7.28
2022-12-23T22:25:59.448Z,8.07
2022-12-23T22:28:52.409Z,7.70
2022-12-23T22:31:27.157Z,7.50
2022-12-23T22:33:55.818Z,8.45
2022-12-23T22:36:23.843Z,8.80
2022-12-23T22:39:20.986Z,7.40
2022-12-23T22:41:51.097Z,7.43
2022-12-23T22:44:20.538Z,7.18
2022-12-23T22:46:48.397Z,8.73
2022-12-23T22:49:16.549Z,8.15
2022-12-23T22:51:44.487Z,7.40
2022-12-23T22:54:11.941Z,7.88
2022-12-23T22:56:39.854Z,7.75
2022-12-23T22:59:12.871Z,8.10
2022-12-23T23:01:39.831Z,7.15
2022-12-23T23:04:07.939Z,7.82
2022-12-23T23:06:38.759Z,8.43
2022-12-23T23:09:08.523Z,7.72
2022-12-23T23:11:36.068Z,7.63
2022-12-23T23:14:03.946Z,7.85
2022-12-23T23:16:32.048Z,8.18
2022-12-23T23:19:00.032Z,8.95
2022-12-23T23:21:27.796Z,7.67
2022-12-23T23:23:55.866Z,8.27
2022-12-23T23:26:27.460Z,8.38
2022-12-23T23:28:56.412Z,7.57
2022-12-23T23:34:12.969Z,5.82
2022-12-23T23:36:45.900Z,7.38
2022-12-23T23:39:14.211Z,8.02
2022-12-23T23:41:42.081Z,7.65
2022-12-23T23:49:53.844Z,6.38
2022-12-23T23:52:25.742Z,7.88
2022-12-23T23:54:53.732Z,7.38
2022-12-23T23:57:47.777Z,8.20
